Time;durP1;ratioP1;P1;durP2;ratioP2;P2;SDS_P1;SDS_P2;PMS_P1;PMS_P2;Temp;Humidity;BMP_temperature;BMP_pressure;BME280_temperature;BME280_humidity;BME280_pressure;Samples;Min_cycle;Max_cycle;Signal;HPM_P1;HPM_P2
2022/06/08 00:00:38;;;;;;;3.40;1.60;;;;;;;16.10;100.00;100184.25;5232456;28;20024;-74
2022/06/08 00:03:17;;;;;;;2.50;1.50;;;;;;;15.98;100.00;100185.91;5233559;28;20361;-74
2022/06/08 00:05:48;;;;;;;5.20;1.52;;;;;;;16.07;100.00;100177.38;5233318;28;20029;-74
2022/06/08 00:08:19;;;;;;;2.40;1.50;;;;;;;16.02;100.00;100171.56;5231805;28;20107;-74
2022/06/08 00:10:49;;;;;;;2.50;1.50;;;;;;;16.11;100.00;100170.13;5232970;28;20025;-74
2022/06/08 00:13:20;;;;;;;2.38;1.60;;;;;;;16.35;100.00;100171.25;5231813;28;20025;-74
2022/06/08 00:15:50;;;;;;;2.97;1.20;;;;;;;16.43;99.58;100164.50;5232650;28;20402;-74
2022/06/08 00:18:21;;;;;;;3.13;1.67;;;;;;;16.47;100.00;100171.28;5231827;28;20040;-74
2022/06/08 00:20:51;;;;;;;4.60;1.50;;;;;;;16.47;99.61;100168.63;5233921;28;20362;-74
2022/06/08 00:23:22;;;;;;;2.53;1.40;;;;;;;16.45;98.70;100159.97;5231586;28;20028;-74
2022/06/08 00:25:52;;;;;;;2.92;1.30;;;;;;;16.27;99.27;100160.28;5228853;28;20465;-74
2022/06/08 00:28:23;;;;;;;4.03;1.40;;;;;;;16.23;99.61;100157.00;5225970;28;20063;-74
2022/06/08 00:30:53;;;;;;;2.58;1.40;;;;;;;16.22;99.71;100157.13;5232505;28;20485;-76
2022/06/08 00:33:24;;;;;;;1.90;1.15;;;;;;;16.22;98.27;100165.03;5233252;28;20400;-76
2022/06/08 00:35:54;;;;;;;2.47;1.38;;;;;;;16.18;99.24;100158.28;5233084;28;20054;-76
2022/06/08 00:38:25;;;;;;;2.13;1.38;;;;;;;15.97;100.00;100152.56;5228445;28;20022;-76
2022/06/08 00:41:10;;;;;;;2.72;1.20;;;;;;;15.60;100.00;100155.88;5232736;28;20047;-76
2022/06/08 00:43:41;;;;;;;2.97;1.40;;;;;;;15.55;100.00;100157.09;5232521;28;20020;-76
2022/06/08 00:46:12;;;;;;;2.33;1.40;;;;;;;15.33;100.00;100148.84;5219905;28;20037;-74
2022/06/08 00:48:49;;;;;;;3.95;1.50;;;;;;;15.00;100.00;100153.47;5210932;28;20868;-76
2022/06/08 00:51:20;;;;;;;3.20;1.40;;;;;;;14.83;100.00;100151.00;5231231;28;20024;-76
2022/06/08 00:54:04;;;;;;;4.07;1.60;;;;;;;14.79;100.00;100146.84;5231633;28;20078;-76
2022/06/08 00:56:38;;;;;;;3.75;1.45;;;;;;;14.93;100.00;100150.38;5221018;28;20562;-76
2022/06/08 00:59:10;;;;;;;2.88;1.40;;;;;;;15.11;100.00;100154.53;5226901;28;20052;-76
2022/06/08 01:01:41;;;;;;;2.15;1.40;;;;;;;15.13;100.00;100160.53;5232771;28;20028;-76
2022/06/08 01:04:14;;;;;;;3.17;1.48;;;;;;;15.07;100.00;100142.50;5230215;28;20082;-75
2022/06/08 01:06:52;;;;;;;3.25;1.50;;;;;;;14.77;100.00;100142.63;5231164;28;20107;-76
2022/06/08 01:09:28;;;;;;;2.88;1.42;;;;;;;14.99;100.00;100144.72;5231178;28;20059;-76
2022/06/08 01:12:02;;;;;;;2.65;1.55;;;;;;;14.96;100.00;100142.28;5233149;28;20032;-76
2022/06/08 01:14:35;;;;;;;4.25;1.77;;;;;;;14.98;100.00;100140.41;5227769;28;20035;-76
2022/06/08 01:17:10;;;;;;;4.10;2.00;;;;;;;14.97;100.00;100136.06;5228968;28;20093;-76
2022/06/08 01:19:44;;;;;;;3.13;1.77;;;;;;;14.98;100.00;100136.94;5214240;28;20081;-76
2022/06/08 01:22:17;;;;;;;5.07;1.88;;;;;;;14.83;100.00;100138.69;5228308;28;20033;-75
2022/06/08 01:24:51;;;;;;;3.42;2.20;;;;;;;14.77;100.00;100142.63;5230742;28;20020;-76
2022/06/08 01:27:39;;;;;;;3.13;1.80;;;;;;;14.80;100.00;100137.19;5223284;28;20041;-76
2022/06/08 01:30:35;;;;;;;3.88;2.20;;;;;;;14.89;100.00;100138.34;5226664;28;20029;-76
2022/06/08 01:33:06;;;;;;;3.25;2.08;;;;;;;14.82;100.00;100138.78;5229337;28;20498;-76
2022/06/08 01:35:45;;;;;;;3.05;1.80;;;;;;;14.95;100.00;100140.59;5232762;28;20024;-76
2022/06/08 01:38:31;;;;;;;3.63;2.05;;;;;;;14.91;100.00;100139.09;5230393;28;20032;-76
2022/06/08 01:41:17;;;;;;;4.95;1.83;;;;;;;14.86;100.00;100137.66;5231311;28;20028;-76
2022/06/08 01:44:15;;;;;;;4.53;2.20;;;;;;;14.95;100.00;100137.09;5210644;28;20491;-76
2022/06/08 01:46:51;;;;;;;2.53;2.03;;;;;;;14.99;100.00;100128.09;5228407;28;20025;-76
2022/06/08 01:49:37;;;;;;;3.33;2.10;;;;;;;14.86;100.00;100130.59;5230115;28;20039;-76
2022/06/08 01:52:36;;;;;;;3.08;2.10;;;;;;;14.92;100.00;100119.72;5229373;28;20035;-76
2022/06/08 01:55:12;;;;;;;4.22;2.00;;;;;;;15.03;100.00;100129.59;5226201;28;20029;-76
2022/06/08 01:57:48;;;;;;;;;;;;;;;14.74;100.00;100111.25;5222360;28;20036;-76
2022/06/08 02:00:20;;;;;;;2.85;2.47;;;;;;;14.77;100.00;100118.94;5230185;28;20301;-76
2022/06/08 02:03:06;;;;;;;3.63;2.00;;;;;;;14.77;100.00;100114.53;5213239;28;20086;-76
2022/06/08 02:05:53;;;;;;;3.08;2.10;;;;;;;14.88;100.00;100110.31;5228701;28;20044;-76
2022/06/08 02:08:45;;;;;;;3.63;2.13;;;;;;;15.03;100.00;100101.47;5228758;28;20036;-76
2022/06/08 02:11:38;;;;;;;2.35;1.70;;;;;;;15.21;100.00;100097.72;5227998;28;20043;-76
2022/06/08 02:14:15;;;;;;;4.30;2.05;;;;;;;15.27;100.00;100094.72;5221880;28;20540;-76
2022/06/08 02:16:52;;;;;;;4.25;2.08;;;;;;;15.27;100.00;100097.34;5230438;28;20036;-76
2022/06/08 02:19:44;;;;;;;3.38;1.88;;;;;;;15.20;100.00;100096.03;5231248;28;20106;-76
2022/06/08 02:22:34;;;;;;;3.17;2.00;;;;;;;15.27;100.00;100093.88;5228673;28;20017;-76
2022/06/08 02:25:12;;;;;;;4.75;1.85;;;;;;;15.40;100.00;100086.94;5226025;28;20645;-76
2022/06/08 02:27:52;;;;;;;3.42;1.90;;;;;;;15.52;100.00;100091.44;5225417;28;20028;-76
2022/06/08 02:30:26;;;;;;;3.17;1.85;;;;;;;15.36;100.00;100101.22;5234767;28;20120;-76
2022/06/08 02:36:06;;;;;;;3.30;2.05;;;;;;;15.06;100.00;100097.81;5235350;28;20047;-76
2022/06/08 02:38:44;;;;;;;3.20;1.98;;;;;;;15.16;100.00;100097.16;5228780;28;20035;-76
2022/06/08 02:41:15;;;;;;;3.35;2.20;;;;;;;15.16;100.00;100098.97;5234993;28;20661;-76
2022/06/08 02:43:49;;;;;;;4.30;2.30;;;;;;;14.83;100.00;100103.66;5233360;28;20669;-76
2022/06/08 02:46:28;;;;;;;2.50;2.10;;;;;;;14.91;100.00;100102.25;5233622;28;20025;-76
2022/06/08 02:49:06;;;;;;;7.13;2.53;;;;;;;14.95;100.00;100089.72;5236040;28;20501;-76
2022/06/08 02:51:41;;;;;;;4.10;2.30;;;;;;;15.13;100.00;100093.88;5229081;28;20465;-76
2022/06/08 02:54:16;;;;;;;2.67;2.03;;;;;;;15.27;100.00;100084.19;5234997;28;20020;-76
2022/06/08 02:56:52;;;;;;;3.37;2.10;;;;;;;15.32;100.00;100095.31;5226863;28;20692;-76
2022/06/08 02:59:44;;;;;;;3.05;1.95;;;;;;;15.30;100.00;100097.19;5231305;28;20032;-76
2022/06/08 03:02:28;;;;;;;3.17;2.20;;;;;;;15.20;100.00;100093.38;5231186;28;20028;-76
2022/06/08 03:05:03;;;;;;;2.67;2.00;;;;;;;15.19;100.00;100091.69;5233059;28;20509;-76
2022/06/08 03:07:40;;;;;;;2.75;1.88;;;;;;;15.06;100.00;100088.16;5235173;28;20040;-76
2022/06/08 03:10:14;;;;;;;2.28;1.85;;;;;;;15.19;100.00;100089.06;5233467;28;20028;-74
2022/06/08 03:12:53;;;;;;;3.40;2.10;;;;;;;15.22;100.00;100088.03;5233586;28;20405;-76
2022/06/08 03:15:25;;;;;;;4.25;2.13;;;;;;;15.21;100.00;100089.81;5234202;28;20837;-76
2022/06/08 03:17:56;;;;;;;3.30;2.38;;;;;;;15.08;100.00;100090.69;5234849;28;20036;-76
2022/06/08 03:20:27;;;;;;;5.00;2.30;;;;;;;14.95;100.00;100093.22;5231908;28;20027;-76
2022/06/08 03:22:57;;;;;;;2.97;2.00;;;;;;;15.15;100.00;100094.66;5232765;28;20055;-76
2022/06/08 03:25:27;;;;;;;3.65;2.20;;;;;;;15.16;100.00;100091.91;5232661;28;20055;-76
2022/06/08 03:27:58;;;;;;;3.90;2.30;;;;;;;15.24;100.00;100091.41;5224370;28;20029;-76
2022/06/08 03:30:28;;;;;;;3.67;2.05;;;;;;;15.15;100.00;100092.84;5234969;28;20024;-76
2022/06/08 03:32:59;;;;;;;6.60;1.80;;;;;;;15.37;100.00;100090.59;5232814;28;20036;-76
2022/06/08 03:35:29;;;;;;;3.80;1.98;;;;;;;15.41;100.00;100094.75;5234520;28;20048;-76
2022/06/08 03:37:59;;;;;;;3.63;2.10;;;;;;;15.44;100.00;100086.66;5231216;28;20375;-76
2022/06/08 03:40:30;;;;;;;4.10;2.00;;;;;;;15.43;100.00;100087.59;5233325;28;20029;-76
2022/06/08 03:43:01;;;;;;;3.30;2.20;;;;;;;15.43;100.00;100081.47;5235152;28;20066;-75
2022/06/08 03:45:41;;;;;;;3.25;1.80;;;;;;;15.47;100.00;100085.59;5213659;28;20378;-76
2022/06/08 03:48:11;;;;;;;3.10;2.20;;;;;;;15.63;100.00;100087.16;5228205;28;20025;-75
2022/06/08 03:50:44;;;;;;;2.78;2.10;;;;;;;15.92;100.00;100088.78;5234052;28;20040;-76
2022/06/08 03:53:18;;;;;;;2.90;2.00;;;;;;;15.87;100.00;100088.22;5232810;28;20032;-76
2022/06/08 03:55:51;;;;;;;3.50;1.83;;;;;;;15.87;100.00;100092.66;5211545;28;20033;-76
2022/06/08 03:58:22;;;;;;;4.65;2.10;;;;;;;15.75;100.00;100091.66;5225979;28;20516;-76
2022/06/08 04:00:53;;;;;;;4.22;1.92;;;;;;;15.85;100.00;100090.09;5232698;28;20099;-76
2022/06/08 04:03:23;;;;;;;3.28;1.98;;;;;;;15.87;100.00;100090.03;5233605;28;20375;-76
2022/06/08 04:05:53;;;;;;;3.88;2.10;;;;;;;16.00;100.00;100088.25;5231943;28;20060;-76
2022/06/08 04:08:25;;;;;;;3.40;1.98;;;;;;;16.05;100.00;100092.28;5215119;28;20086;-76
2022/06/08 04:10:55;;;;;;;6.13;2.00;;;;;;;16.01;100.00;100089.97;5231576;28;20063;-76
2022/06/08 04:13:25;;;;;;;3.63;2.55;;;;;;;16.11;100.00;100081.34;5231952;28;20052;-76
2022/06/08 04:15:56;;;;;;;4.93;2.38;;;;;;;16.14;100.00;100083.78;5233913;28;20111;-76
2022/06/08 04:18:26;;;;;;;3.55;2.13;;;;;;;15.94;100.00;100089.53;5230890;28;20120;-76
2022/06/08 04:20:59;;;;;;;3.50;2.25;;;;;;;16.03;100.00;100094.19;5213293;28;20017;-76
2022/06/08 04:23:31;;;;;;;3.33;2.33;;;;;;;15.98;100.00;100091.00;5233733;28;20068;-76
2022/06/08 04:26:02;;;;;;;3.92;2.60;;;;;;;16.02;100.00;100087.22;5226470;28;20165;-76
2022/06/08 04:28:34;;;;;;;5.30;2.90;;;;;;;16.14;100.00;100089.06;5209493;28;20031;-76
2022/06/08 04:31:05;;;;;;;5.47;2.90;;;;;;;16.18;100.00;100093.19;5230913;28;20029;-76
2022/06/08 04:33:35;;;;;;;8.48;2.70;;;;;;;16.20;100.00;100093.09;5234315;28;20028;-76
2022/06/08 04:36:07;;;;;;;4.57;2.90;;;;;;;16.22;100.00;100093.81;5230822;28;20078;-76
2022/06/08 04:38:37;;;;;;;6.00;2.75;;;;;;;16.28;100.00;100094.28;5232212;28;20025;-76
2022/06/08 04:41:08;;;;;;;4.68;2.83;;;;;;;16.42;100.00;100083.66;5231896;28;20020;-76
2022/06/08 04:43:41;;;;;;;5.55;2.53;;;;;;;16.51;100.00;100092.75;5230751;28;20024;-76
2022/06/08 04:46:15;;;;;;;8.77;2.92;;;;;;;16.45;100.00;100094.03;5232959;28;20059;-75
2022/06/08 04:48:46;;;;;;;6.00;2.60;;;;;;;16.44;100.00;100088.84;5230851;28;20569;-76
2022/06/08 04:51:17;;;;;;;3.67;2.60;;;;;;;16.41;100.00;100095.16;5232508;28;20397;-76
2022/06/08 04:53:48;;;;;;;4.85;2.72;;;;;;;16.48;100.00;100092.94;5232254;28;20025;-76
2022/06/08 04:56:18;;;;;;;4.72;2.80;;;;;;;16.57;100.00;100095.81;5226623;28;20029;-76
2022/06/08 04:58:49;;;;;;;6.07;2.67;;;;;;;16.34;100.00;100093.84;5226059;28;20032;-76
2022/06/08 05:01:19;;;;;;;4.82;2.45;;;;;;;16.56;100.00;100088.84;5231852;28;20086;-76
2022/06/08 05:03:50;;;;;;;4.43;2.38;;;;;;;16.76;100.00;100093.63;5231589;28;20112;-77
2022/06/08 05:06:20;;;;;;;3.42;2.45;;;;;;;17.17;100.00;100092.44;5232030;28;20043;-76
2022/06/08 05:08:51;;;;;;;2.90;2.10;;;;;;;17.56;100.00;100083.53;5231201;28;20029;-76
2022/06/08 05:11:21;;;;;;;3.75;1.90;;;;;;;17.97;100.00;100089.31;5231332;28;20060;-76
2022/06/08 05:13:52;;;;;;;3.83;1.88;;;;;;;18.14;100.00;100081.81;5231329;28;20044;-76
2022/06/08 05:16:24;;;;;;;5.00;2.30;;;;;;;18.50;100.00;100086.19;5230032;28;20032;-76
2022/06/08 05:18:54;;;;;;;3.40;2.13;;;;;;;19.54;98.27;100069.06;5230314;28;20036;-77
2022/06/08 05:21:24;;;;;;;5.45;2.10;;;;;;;19.62;98.58;100083.41;5227056;28;20377;-76
2022/06/08 05:23:55;;;;;;;3.55;1.80;;;;;;;19.47;98.55;100076.66;5229298;28;20043;-76
2022/06/08 05:26:25;;;;;;;4.22;2.00;;;;;;;19.03;100.00;100081.97;5224271;28;20028;-76
2022/06/08 05:28:55;;;;;;;3.00;1.80;;;;;;;19.35;99.61;100071.50;5206799;28;20017;-77
2022/06/08 05:31:26;;;;;;;3.28;1.67;;;;;;;19.37;100.00;100062.47;5230084;28;20116;-77
2022/06/08 05:33:57;;;;;;;2.65;1.42;;;;;;;19.72;99.08;100064.94;5226522;28;20036;-76
2022/06/08 05:36:27;;;;;;;4.07;1.60;;;;;;;19.51;99.37;100062.22;5225955;28;20029;-75
2022/06/08 05:38:58;;;;;;;3.90;1.60;;;;;;;20.78;93.35;100056.78;5229895;28;20390;-76
2022/06/08 05:41:28;;;;;;;3.38;1.50;;;;;;;21.42;91.35;100050.22;5230067;28;20111;-76
2022/06/08 05:44:00;;;;;;;2.60;1.40;;;;;;;22.43;83.38;100052.50;5225223;28;20020;-76
2022/06/08 05:46:30;;;;;;;2.97;1.60;;;;;;;21.54;87.47;100051.78;5225487;28;20495;-77
2022/06/08 05:49:00;;;;;;;26.90;14.07;;;;;;;20.47;92.28;100064.78;5229292;28;20278;-77
2022/06/08 05:51:31;;;;;;;3.50;1.85;;;;;;;20.59;94.24;100066.44;5232776;28;20028;-76
2022/06/08 05:54:01;;;;;;;3.30;1.85;;;;;;;20.89;92.86;100061.19;5226717;28;20036;-77
2022/06/08 05:56:32;;;;;;;4.72;1.90;;;;;;;20.20;98.00;100067.13;5222314;28;20039;-75
2022/06/08 05:59:03;;;;;;;3.65;1.70;;;;;;;20.34;97.99;100061.50;5224352;28;20033;-77
2022/06/08 06:01:35;;;;;;;3.05;1.90;;;;;;;20.17;98.18;100064.72;5230264;28;20063;-76
2022/06/08 06:04:07;;;;;;;2.65;2.03;;;;;;;20.77;90.35;100060.41;5224255;28;20020;-77
2022/06/08 06:06:38;;;;;;;3.95;1.88;;;;;;;21.63;89.18;100066.13;5227887;28;20032;-76
2022/06/08 06:09:09;;;;;;;6.53;2.30;;;;;;;20.99;90.01;100060.28;5233097;28;20112;-76
2022/06/08 06:11:40;;;;;;;3.65;2.13;;;;;;;21.11;91.06;100061.88;5234876;28;20136;-76
2022/06/08 06:14:11;;;;;;;2.63;1.70;;;;;;;20.61;92.62;100069.78;5229298;28;20074;-74
2022/06/08 06:16:41;;;;;;;2.92;1.70;;;;;;;20.66;94.11;100072.88;5229382;28;20032;-76
2022/06/08 06:19:12;;;;;;;2.88;2.30;;;;;;;21.13;91.86;100067.03;5233521;28;20044;-76
2022/06/08 06:21:42;;;;;;;3.67;2.20;;;;;;;20.95;90.60;100066.84;5233143;28;20020;-77
2022/06/08 06:24:12;;;;;;;2.90;2.25;;;;;;;20.80;91.75;100064.59;5228931;28;20494;-76
2022/06/08 06:26:43;;;;;;;2.40;1.90;;;;;;;21.05;90.51;100069.53;5207831;28;20565;-76
2022/06/08 06:29:14;;;;;;;2.17;1.70;;;;;;;20.90;91.51;100066.34;5228440;28;20029;-76
2022/06/08 06:31:49;;;;;;;2.53;1.60;;;;;;;21.00;90.25;100077.03;5233821;28;20028;-76
2022/06/08 06:34:22;;;;;;;2.70;1.80;;;;;;;20.72;90.74;100075.88;5234439;28;20071;-76
2022/06/08 06:36:53;;;;;;;2.13;1.55;;;;;;;20.74;92.34;100075.75;5232982;28;20040;-77
2022/06/08 06:39:26;;;;;;;4.18;1.85;;;;;;;20.46;93.26;100078.22;5231381;28;20680;-77
2022/06/08 06:41:58;;;;;;;4.15;1.67;;;;;;;20.57;92.38;100083.44;5234518;28;20672;-77
2022/06/08 06:44:29;;;;;;;2.67;1.60;;;;;;;20.24;96.17;100071.19;5223738;28;20059;-76
2022/06/08 06:47:00;;;;;;;2.85;1.55;;;;;;;20.37;94.78;100077.19;5230201;28;20050;-77
2022/06/08 06:49:30;;;;;;;3.38;1.73;;;;;;;20.76;93.72;100073.81;5228693;28;20068;-77
2022/06/08 06:52:01;;;;;;;3.25;2.30;;;;;;;20.87;92.21;100074.59;5232382;28;20445;-76
2022/06/08 06:54:32;;;;;;;3.17;2.10;;;;;;;20.60;91.87;100078.72;5227194;28;20032;-76
2022/06/08 06:57:02;;;;;;;2.95;2.08;;;;;;;20.78;92.25;100070.06;5218679;28;20107;-77
2022/06/08 06:59:33;;;;;;;3.97;2.17;;;;;;;21.55;89.17;100079.25;5232342;28;20113;-77
2022/06/08 07:02:09;;;;;;;5.53;2.58;;;;;;;21.85;84.08;100066.75;5227411;28;20033;-76
2022/06/08 07:04:41;;;;;;;3.55;2.05;;;;;;;22.23;81.71;100071.28;5228576;28;20025;-77
2022/06/08 07:07:12;;;;;;;3.10;2.00;;;;;;;22.49;83.33;100067.06;5228995;28;20453;-75
2022/06/08 07:09:42;;;;;;;3.03;1.90;;;;;;;23.49;79.52;100066.22;5216032;28;20037;-77
2022/06/08 07:12:14;;;;;;;4.00;2.50;;;;;;;24.18;75.57;100062.00;5226477;28;20780;-77
2022/06/08 07:14:44;;;;;;;4.85;1.90;;;;;;;25.57;71.42;100059.97;5221186;28;20055;-77
2022/06/08 07:17:15;;;;;;;2.92;1.30;;;;;;;26.41;66.78;100056.16;5228704;28;20029;-77
2022/06/08 07:19:45;;;;;;;2.00;1.48;;;;;;;27.30;65.73;100058.59;5215078;28;20453;-77
2022/06/08 07:22:17;;;;;;;1.95;1.10;;;;;;;27.82;64.87;100044.44;5231171;28;20390;-77
2022/06/08 07:24:47;;;;;;;1.45;1.00;;;;;;;26.95;65.04;100054.47;5224964;28;20082;-77
2022/06/08 07:27:18;;;;;;;2.00;1.25;;;;;;;27.90;64.04;100052.47;5231027;28;20024;-77
2022/06/08 07:29:49;;;;;;;1.70;1.20;;;;;;;27.66;65.12;100054.41;5233374;28;20028;-77
2022/06/08 07:32:19;;;;;;;2.30;1.33;;;;;;;27.11;67.43;100059.00;5235638;28;20032;-77
2022/06/08 07:34:50;;;;;;;2.30;1.50;;;;;;;25.32;70.38;100060.91;5230724;28;20025;-75
2022/06/08 07:37:22;;;;;;;1.35;1.13;;;;;;;25.26;70.34;100056.16;5229939;28;20112;-74
2022/06/08 07:39:52;;;;;;;3.03;1.50;;;;;;;25.45;71.67;100050.59;5215464;28;20739;-75
2022/06/08 07:42:23;;;;;;;2.35;1.48;;;;;;;25.53;70.61;100045.25;5232384;28;20128;-75
2022/06/08 07:44:53;;;;;;;2.17;1.23;;;;;;;24.63;73.58;100038.72;5235660;28;20028;-74
2022/06/08 07:47:23;;;;;;;1.93;1.40;;;;;;;23.67;75.26;100037.75;5231890;28;20037;-74
2022/06/08 07:49:54;;;;;;;1.92;1.40;;;;;;;23.43;77.60;100033.97;5234125;28;20312;-74
2022/06/08 07:52:24;;;;;;;2.67;1.70;;;;;;;23.38;74.69;100036.25;5232634;28;20046;-74
2022/06/08 07:54:56;;;;;;;2.22;1.50;;;;;;;23.22;77.06;100028.03;5227653;28;20267;-74
2022/06/08 07:57:27;;;;;;;4.38;1.48;;;;;;;22.90;78.55;100033.75;5231184;28;20028;-74
2022/06/08 07:59:57;;;;;;;2.55;1.60;;;;;;;24.05;75.30;100020.66;5234440;28;20025;-74
2022/06/08 08:02:27;;;;;;;2.13;1.60;;;;;;;25.16;70.87;100009.94;5231965;28;20044;-75
2022/06/08 08:04:58;;;;;;;2.25;1.50;;;;;;;26.60;66.82;100005.75;5236925;28;20389;-75
2022/06/08 08:07:29;;;;;;;3.25;1.58;;;;;;;26.88;64.75;100004.34;5223971;28;20040;-75
2022/06/08 08:09:59;;;;;;;2.15;1.65;;;;;;;25.91;65.07;100001.84;5231943;28;20545;-74
2022/06/08 08:12:29;;;;;;;2.65;1.30;;;;;;;28.09;62.90;99997.44;5231645;28;20025;-75
2022/06/08 08:15:00;;;;;;;2.27;1.60;;;;;;;27.30;63.21;99997.69;5234104;28;20504;-75
2022/06/08 08:17:30;;;;;;;2.53;1.60;;;;;;;27.09;62.69;99991.22;5224136;28;20291;-75
2022/06/08 08:20:00;;;;;;;2.60;1.50;;;;;;;27.61;61.32;99993.16;5250415;22;20044;-75
2022/06/08 08:22:30;;;;;;;1.92;1.30;;;;;;;29.10;59.65;99981.50;5225963;28;20289;-75
2022/06/08 08:25:01;;;;;;;3.80;1.50;;;;;;;28.74;59.67;99988.63;5213173;28;20024;-77
2022/06/08 08:27:31;;;;;;;2.63;1.47;;;;;;;28.75;62.15;99983.03;5230157;28;20267;-74
2022/06/08 08:30:04;;;;;;;3.13;1.52;;;;;;;29.88;57.74;99979.78;5233961;28;20319;-75
2022/06/08 08:32:34;;;;;;;3.08;1.50;;;;;;;27.18;62.67;99984.81;5231003;28;20063;-75
2022/06/08 08:35:05;;;;;;;2.90;1.30;;;;;;;27.21;62.07;99974.59;5213424;28;20481;-75
2022/06/08 08:37:35;;;;;;;1.55;1.30;;;;;;;26.88;65.57;99982.88;5229708;28;20271;-73
2022/06/08 08:40:07;;;;;;;2.33;1.60;;;;;;;25.26;68.92;99983.91;5234144;28;20075;-75
2022/06/08 08:42:44;;;;;;;2.00;1.42;;;;;;;25.33;68.29;99990.31;5230321;28;20068;-75
2022/06/08 08:45:15;;;;;;;3.33;1.60;;;;;;;25.80;66.15;99983.41;5235337;28;20048;-75
2022/06/08 08:47:54;;;;;;;2.15;1.60;;;;;;;26.56;65.39;99974.06;5230807;28;20059;-75
2022/06/08 08:50:30;;;;;;;2.35;1.70;;;;;;;26.72;64.17;99963.31;5230020;28;20108;-76
2022/06/08 08:53:10;;;;;;;2.00;1.30;;;;;;;26.96;63.27;99954.19;5230374;28;20107;-74
2022/06/08 08:55:47;;;;;;;1.95;1.20;;;;;;;27.69;62.13;99960.91;5230296;28;20079;-76
2022/06/08 08:58:26;;;;;;;1.40;1.20;;;;;;;28.50;59.74;99956.56;5231054;28;20111;-75
2022/06/08 09:01:00;;;;;;;1.70;1.30;;;;;;;26.75;63.18;99959.28;5233026;28;20486;-75
2022/06/08 09:03:40;;;;;;;1.88;1.38;;;;;;;26.80;62.93;99943.50;5234067;28;20074;-77
2022/06/08 09:06:16;;;;;;;4.22;1.60;;;;;;;27.49;62.96;99940.88;5226844;28;20016;-76
2022/06/08 09:08:52;;;;;;;1.40;1.10;;;;;;;25.49;65.08;99937.66;5228740;28;20024;-76
2022/06/08 09:11:25;;;;;;;1.92;1.30;;;;;;;25.51;66.65;99935.66;5228605;28;20055;-76
2022/06/08 09:14:07;;;;;;;2.70;1.50;;;;;;;24.86;68.66;99939.09;5213810;28;20035;-75
2022/06/08 09:16:46;;;;;;;4.10;1.50;;;;;;;26.54;64.16;99930.53;5229696;28;20064;-76
2022/06/08 09:19:22;;;;;;;1.88;1.40;;;;;;;26.85;65.05;99929.56;5230358;28;20024;-76
2022/06/08 09:22:02;;;;;;;1.17;1.00;;;;;;;26.59;64.89;99931.69;5212056;28;20042;-75
2022/06/08 09:24:49;;;;;;;1.35;1.05;;;;;;;26.30;62.91;99935.88;5226213;28;20029;-75
2022/06/08 09:27:35;;;;;;;1.60;1.10;;;;;;;27.24;63.94;99925.91;5220644;28;20036;-76
2022/06/08 09:30:18;;;;;;;2.92;1.20;;;;;;;26.48;62.10;99933.88;5224999;28;20024;-75
2022/06/08 09:33:08;;;;;;;2.03;1.00;;;;;;;25.50;66.66;99935.84;5231234;28;20025;-77
2022/06/08 09:35:52;;;;;;;1.40;1.10;;;;;;;25.01;66.52;99931.31;5217214;28;20048;-75
2022/06/08 09:38:26;;;;;;;1.50;1.10;;;;;;;25.99;65.45;99929.56;5229513;28;20071;-75
2022/06/08 09:41:27;;;;;;;2.65;1.10;;;;;;;26.59;64.34;99923.63;5232119;28;20020;-76
2022/06/08 09:44:26;;;;;;;2.72;1.10;;;;;;;26.20;63.95;99924.50;5225114;28;20457;-75
2022/06/08 09:53:02;;;;;;;1.92;1.02;;;;;;;26.92;64.42;99912.63;5228251;28;20465;-76
2022/06/08 09:55:38;;;;;;;1.42;1.00;;;;;;;26.55;64.34;99905.38;5229226;28;20053;-74
2022/06/08 09:58:39;;;;;;;2.25;1.02;;;;;;;26.46;65.46;99912.56;5225433;28;20031;-75
2022/06/08 10:01:35;;;;;;;1.63;1.00;;;;;;;26.30;63.97;99903.72;5225953;28;20021;-75
2022/06/08 10:04:26;;;;;;;1.30;0.93;;;;;;;26.47;64.61;99905.34;5224806;28;20269;-75
2022/06/08 10:07:12;;;;;;;3.63;1.30;;;;;;;26.07;63.92;99905.44;5228430;28;20447;-75
2022/06/08 10:09:51;;;;;;;1.70;1.10;;;;;;;27.07;61.48;99897.44;5226624;28;20052;-75
2022/06/08 10:12:35;;;;;;;2.95;1.00;;;;;;;27.11;63.04;99892.63;5229561;28;20042;-75
2022/06/08 10:15:22;;;;;;;1.83;1.00;;;;;;;26.88;64.15;99897.88;5210924;28;20036;-75
2022/06/08 10:18:10;;;;;;;1.77;1.20;;;;;;;27.50;64.77;99898.75;5231570;28;20032;-74
2022/06/08 10:21:22;;;;;;;1.58;1.10;;;;;;;27.03;62.45;99890.78;5225877;28;20413;-74
2022/06/08 10:23:59;;;;;;;1.83;1.27;;;;;;;26.42;63.43;99899.69;5224334;28;20033;-74
2022/06/08 10:26:34;;;;;;;1.60;1.20;;;;;;;25.45;66.28;99900.69;5225630;28;20470;-75
2022/06/08 10:29:09;;;;;;;2.05;1.20;;;;;;;26.15;65.19;99897.41;5216843;28;20051;-75
2022/06/08 10:31:47;;;;;;;1.50;1.40;;;;;;;26.25;65.08;99898.88;5225501;28;20025;-75
2022/06/08 10:34:21;;;;;;;2.30;1.10;;;;;;;26.80;60.50;99887.16;5230622;28;20029;-74
2022/06/08 10:36:57;;;;;;;1.33;1.02;;;;;;;26.39;62.07;99878.56;5230925;28;20481;-75
2022/06/08 10:39:29;;;;;;;1.85;1.40;;;;;;;27.11;62.07;99882.69;5227565;28;20104;-75
2022/06/08 10:45:22;;;;;;;1.75;1.30;;;;;;;26.35;62.60;99869.22;5231707;28;20111;-75
2022/06/08 10:47:57;;;;;;;1.83;1.35;;;;;;;27.19;62.32;99863.88;5232840;28;20017;-75
2022/06/08 10:50:39;;;;;;;2.03;1.17;;;;;;;25.64;62.99;99865.59;5231928;28;20029;-75
2022/06/08 10:56:23;;;;;;;1.90;1.20;;;;;;;26.40;66.73;99865.03;5223528;28;20047;-75
2022/06/08 10:58:55;;;;;;;1.88;1.20;;;;;;;26.56;64.25;99861.47;5234607;28;20524;-74
2022/06/08 11:01:36;;;;;;;2.38;1.20;;;;;;;26.67;65.49;99871.84;5232883;28;20625;-75
2022/06/08 11:04:30;;;;;;;2.20;1.10;;;;;;;26.98;62.78;99869.00;5226898;28;20035;-74
2022/06/08 11:07:06;;;;;;;1.52;1.20;;;;;;;27.49;59.47;99860.34;5234735;28;20028;-75
2022/06/08 11:09:36;;;;;;;1.58;1.20;;;;;;;26.55;60.56;99860.63;5230748;28;20846;-74
2022/06/08 11:12:12;;;;;;;2.50;1.20;;;;;;;26.48;61.15;99866.84;5235111;28;20032;-75
2022/06/08 11:14:42;;;;;;;1.40;1.02;;;;;;;26.53;60.95;99865.31;5232613;28;20271;-75
2022/06/08 11:17:39;;;;;;;1.33;1.10;;;;;;;26.92;62.68;99868.88;5233607;28;20024;-75
2022/06/08 11:20:20;;;;;;;1.38;1.00;;;;;;;26.82;57.78;99869.09;5220813;28;20271;-75
2022/06/08 11:22:55;;;;;;;1.45;0.88;;;;;;;25.90;58.72;99869.78;5232186;28;20118;-76
2022/06/08 11:25:44;;;;;;;1.27;0.90;;;;;;;26.15;59.85;99870.59;5207409;28;20055;-74
2022/06/08 11:28:30;;;;;;;2.00;1.23;;;;;;;25.96;61.43;99861.06;5233863;28;20032;-75
2022/06/08 11:31:04;;;;;;;1.58;0.90;;;;;;;26.25;59.47;99855.16;5234570;28;20405;-74
2022/06/08 11:34:13;;;;;;;2.50;1.02;;;;;;;26.50;59.63;99854.13;5231412;28;20039;-74
2022/06/08 11:37:01;;;;;;;1.90;1.08;;;;;;;26.52;57.59;99846.75;5205517;28;20545;-75
2022/06/08 11:39:45;;;;;;;2.53;1.10;;;;;;;26.19;61.20;99854.00;5230807;28;20031;-73
2022/06/08 11:42:32;;;;;;;5.18;1.20;;;;;;;26.25;61.40;99852.47;5222349;28;20028;-74
2022/06/08 11:45:15;;;;;;;1.70;1.00;;;;;;;26.30;60.00;99842.06;5230346;28;20029;-74
2022/06/08 11:48:04;;;;;;;1.65;1.15;;;;;;;26.47;61.95;99833.81;5229491;28;20052;-75
2022/06/08 11:50:42;;;;;;;1.27;1.00;;;;;;;26.70;62.43;99839.28;5229509;28;20306;-74
2022/06/08 11:53:18;;;;;;;2.88;0.98;;;;;;;26.07;59.17;99835.78;5230782;28;20079;-75
2022/06/08 11:55:58;;;;;;;1.80;1.10;;;;;;;25.51;59.25;99827.75;5223665;28;20029;-75
2022/06/08 11:58:31;;;;;;;2.03;1.15;;;;;;;26.12;61.70;99823.53;5229157;28;20028;-75
2022/06/08 12:01:08;;;;;;;2.33;1.17;;;;;;;26.59;59.83;99821.75;5227115;28;20028;-76
2022/06/08 12:03:42;;;;;;;1.95;0.95;;;;;;;26.46;57.90;99817.91;5228381;28;20020;-74
2022/06/08 12:06:35;;;;;;;4.03;1.20;;;;;;;26.31;55.96;99814.28;5226640;28;20017;-74
2022/06/08 12:09:22;;;;;;;1.67;0.93;;;;;;;26.95;55.96;99807.63;5209721;28;20335;-73
2022/06/08 12:11:55;;;;;;;1.63;1.00;;;;;;;27.11;56.70;99802.19;5231086;28;20025;-75
2022/06/08 12:14:35;;;;;;;1.65;1.10;;;;;;;27.03;56.26;99810.28;5231042;28;20032;-74
2022/06/08 12:17:22;;;;;;;5.75;1.35;;;;;;;26.89;57.93;99802.97;5233468;28;20070;-74